createdAt,value
2023-02-15T00:01:39.416Z,101195.28
2023-02-15T00:04:07.120Z,101194.34
2023-02-15T00:06:35.232Z,101184.66
2023-02-15T00:09:02.896Z,101181.28
2023-02-15T00:11:44.179Z,101180.56
2023-02-15T00:14:11.824Z,101179.88
2023-02-15T00:16:39.454Z,101177.47
2023-02-15T00:19:07.172Z,101175.97
2023-02-15T00:21:34.828Z,101182.34
2023-02-15T00:24:02.792Z,101172.94
2023-02-15T00:26:30.481Z,101173.91
2023-02-15T00:29:00.621Z,101168.75
2023-02-15T00:31:28.619Z,101170.53
2023-02-15T00:33:56.425Z,101168.00
2023-02-15T00:36:24.655Z,101167.09
2023-02-15T00:38:52.361Z,101173.25
2023-02-15T00:41:20.044Z,101164.47
2023-02-15T00:43:47.728Z,101160.22
2023-02-15T00:46:15.394Z,101165.56
2023-02-15T00:48:44.511Z,101166.44
2023-02-15T00:51:12.125Z,101167.28
2023-02-15T00:53:39.769Z,101169.91
2023-02-15T00:56:07.441Z,101166.38
2023-02-15T00:58:35.082Z,101161.06
2023-02-15T01:01:03.148Z,101168.97
2023-02-15T01:03:30.828Z,101158.47
2023-02-15T01:05:58.722Z,101168.13
2023-02-15T01:08:26.532Z,101158.44
2023-02-15T01:10:54.464Z,101155.72
2023-02-15T01:13:22.420Z,101165.34
2023-02-15T01:15:50.051Z,101167.06
2023-02-15T01:18:17.982Z,101171.50
2023-02-15T01:20:45.576Z,101171.63
2023-02-15T01:23:13.173Z,101158.59
2023-02-15T01:25:41.288Z,101151.59
2023-02-15T01:28:09.042Z,101155.03
2023-02-15T01:30:36.674Z,101156.75
2023-02-15T01:33:04.312Z,101154.97
2023-02-15T01:35:31.924Z,101150.53
2023-02-15T01:38:00.044Z,101151.31
2023-02-15T01:40:27.728Z,101146.97
2023-02-15T01:42:55.469Z,101142.63
2023-02-15T01:45:23.330Z,101144.44
2023-02-15T01:47:50.964Z,101138.44
2023-02-15T01:50:19.140Z,101133.25
2023-02-15T01:52:47.192Z,101133.41
2023-02-15T01:55:14.918Z,101130.00
2023-02-15T01:57:42.528Z,101135.41
2023-02-15T02:00:10.103Z,101135.50
2023-02-15T02:02:38.341Z,101125.91
2023-02-15T02:05:07.535Z,101125.97
2023-02-15T02:07:35.147Z,101122.50
2023-02-15T02:10:02.815Z,101121.59
2023-02-15T02:12:30.408Z,101118.97
2023-02-15T02:14:59.985Z,101111.97
2023-02-15T02:17:27.657Z,101102.25
2023-02-15T02:19:55.302Z,101104.75
2023-02-15T02:22:22.941Z,101100.22
2023-02-15T02:24:50.849Z,101089.59
2023-02-15T02:27:18.867Z,101096.56
2023-02-15T02:29:46.467Z,101087.88
2023-02-15T02:32:14.088Z,101081.97
2023-02-15T02:34:42.553Z,101085.41
2023-02-15T02:37:10.674Z,101076.41
2023-02-15T02:39:38.534Z,101091.94
2023-02-15T02:42:06.130Z,101076.94
2023-02-15T02:44:33.721Z,101081.41
2023-02-15T02:47:01.794Z,101087.69
2023-02-15T02:49:29.393Z,101082.59
2023-02-15T02:51:57.175Z,101071.47
2023-02-15T02:54:24.815Z,101067.34
2023-02-15T02:56:52.406Z,101068.44
2023-02-15T02:59:20.832Z,101068.63
2023-02-15T03:01:48.533Z,101063.56
2023-02-15T03:04:16.166Z,101069.88
2023-02-15T03:06:43.861Z,101066.59
2023-02-15T03:09:15.618Z,101067.59
2023-02-15T03:11:43.573Z,101071.25
2023-02-15T03:14:11.165Z,101069.63
2023-02-15T03:16:38.850Z,101062.69
2023-02-15T03:19:06.860Z,101061.91
2023-02-15T03:21:34.800Z,101063.63
2023-02-15T03:24:02.782Z,101060.09
2023-02-15T03:26:30.377Z,101055.66
2023-02-15T03:28:58.104Z,101047.75
2023-02-15T03:31:25.787Z,101056.50
2023-02-15T03:33:53.428Z,101049.56
2023-02-15T03:36:21.437Z,101056.66
2023-02-15T03:38:49.054Z,101054.19
2023-02-15T03:41:16.860Z,101056.06
2023-02-15T03:43:44.887Z,101054.53
2023-02-15T03:46:12.504Z,101053.06
2023-02-15T03:48:40.121Z,101051.50
2023-02-15T03:51:25.547Z,101061.31
2023-02-15T03:53:53.228Z,101057.91
2023-02-15T03:56:20.813Z,101053.59
2023-02-15T03:59:05.778Z,101041.38
2023-02-15T04:01:59.252Z,101043.19
2023-02-15T04:04:27.041Z,101052.78
2023-02-15T04:06:54.623Z,101053.66
2023-02-15T04:09:39.986Z,101048.44
2023-02-15T04:12:07.693Z,101052.78
2023-02-15T04:14:52.545Z,101032.69
2023-02-15T04:17:20.135Z,101040.59
2023-02-15T04:20:05.781Z,101037.16
2023-02-15T04:22:50.749Z,101041.44
2023-02-15T04:25:18.797Z,101043.09
2023-02-15T04:27:46.587Z,101041.28
2023-02-15T04:30:14.297Z,101046.59
2023-02-15T04:32:42.005Z,101042.22
2023-02-15T04:35:10.348Z,101046.69
2023-02-15T04:37:37.906Z,101044.91
2023-02-15T04:40:05.573Z,101043.13
2023-02-15T04:42:33.541Z,101040.63
2023-02-15T04:45:01.125Z,101038.09
2023-02-15T04:47:29.197Z,101040.75
2023-02-15T04:49:58.118Z,101041.75
2023-02-15T04:52:26.056Z,101035.72
2023-02-15T04:54:53.717Z,101035.84
2023-02-15T04:57:21.327Z,101038.59
2023-02-15T04:59:49.014Z,101029.94
2023-02-15T05:02:16.627Z,101030.88
2023-02-15T05:04:44.537Z,101023.09
2023-02-15T05:07:12.500Z,101030.06
2023-02-15T05:09:40.474Z,101026.63
2023-02-15T05:12:08.077Z,101020.53
2023-02-15T05:14:35.674Z,101022.22
2023-02-15T05:17:04.454Z,101027.44
2023-02-15T05:19:32.401Z,101029.16
2023-02-15T05:21:59.977Z,101023.91
2023-02-15T05:24:44.893Z,101016.06
2023-02-15T05:27:29.914Z,101019.59
2023-02-15T05:29:59.306Z,101022.28
2023-02-15T05:32:27.270Z,101018.81
2023-02-15T05:34:54.922Z,101015.34
2023-02-15T05:37:22.702Z,101020.53
2023-02-15T05:39:50.292Z,101014.44
2023-02-15T05:42:18.084Z,101014.44
2023-02-15T05:44:45.726Z,101013.53
2023-02-15T05:47:13.297Z,101013.47
2023-02-15T05:49:40.844Z,101010.91
2023-02-15T05:52:09.474Z,101010.97
2023-02-15T05:54:37.301Z,101006.63
2023-02-15T05:57:04.875Z,101007.53
2023-02-15T05:59:32.615Z,101005.78
2023-02-15T06:02:00.264Z,101000.53
2023-02-15T06:04:27.873Z,100993.44
2023-02-15T06:06:56.051Z,100999.47
2023-02-15T06:09:23.666Z,100993.25
2023-02-15T06:11:51.614Z,100990.63
2023-02-15T06:14:19.678Z,100993.25
2023-02-15T06:16:47.298Z,100994.22
2023-02-15T06:19:15.481Z,100996.94
2023-02-15T06:21:43.287Z,101004.09
2023-02-15T06:24:10.914Z,101009.38
2023-02-15T06:26:38.500Z,101006.88
2023-02-15T06:29:06.188Z,101011.31
2023-02-15T06:31:34.127Z,101014.81
2023-02-15T06:34:03.105Z,101006.88
2023-02-15T06:36:31.176Z,101002.41
2023-02-15T06:38:58.770Z,101006.69
2023-02-15T06:41:26.440Z,101001.41
2023-02-15T06:43:54.654Z,100993.50
2023-02-15T06:46:22.420Z,101004.88
2023-02-15T06:48:50.053Z,101005.84
2023-02-15T06:51:17.716Z,101008.59
2023-02-15T06:53:45.403Z,101011.41
2023-02-15T06:56:13.600Z,101009.72
2023-02-15T06:58:41.647Z,101012.47
2023-02-15T07:01:09.358Z,101020.31
2023-02-15T07:03:37.040Z,101010.75
2023-02-15T07:06:09.478Z,101007.22
2023-02-15T07:08:37.520Z,101013.28
2023-02-15T07:11:18.945Z,101010.59
2023-02-15T07:13:46.519Z,101006.97
2023-02-15T07:16:14.145Z,101005.94
2023-02-15T07:18:44.285Z,101005.84
2023-02-15T07:21:11.937Z,101004.94
2023-02-15T07:23:39.732Z,101004.94
2023-02-15T07:26:07.478Z,100998.84
2023-02-15T07:28:35.089Z,101004.09
2023-02-15T07:31:03.311Z,101003.19
2023-02-15T07:33:31.100Z,100999.53
2023-02-15T07:35:59.102Z,100998.50
2023-02-15T07:38:27.205Z,100990.47
2023-02-15T07:40:55.245Z,100990.19
2023-02-15T07:43:23.493Z,100988.16
2023-02-15T07:45:51.241Z,100987.94
2023-02-15T07:48:19.258Z,100985.09
2023-02-15T07:50:46.916Z,100972.69
2023-02-15T07:53:14.551Z,100977.72
2023-02-15T07:55:42.916Z,100964.41
2023-02-15T07:58:10.594Z,100964.09
2023-02-15T08:00:57.946Z,100958.53
2023-02-15T08:03:27.921Z,100962.50
2023-02-15T08:05:56.226Z,100948.22
2023-02-15T08:08:33.209Z,100954.84
2023-02-15T08:11:18.346Z,100955.06
2023-02-15T08:13:54.837Z,100957.69
2023-02-15T08:16:23.505Z,100954.53
2023-02-15T08:18:51.326Z,100944.13
2023-02-15T08:21:19.399Z,100945.13
2023-02-15T08:23:47.178Z,100933.59
2023-02-15T08:26:14.887Z,100935.69
2023-02-15T08:28:43.005Z,100931.94
2023-02-15T08:31:10.971Z,100927.09
2023-02-15T08:33:38.841Z,100914.78
2023-02-15T08:36:06.647Z,100917.13
2023-02-15T08:38:34.736Z,100917.06
2023-02-15T08:41:03.266Z,100920.69
2023-02-15T08:43:32.516Z,100916.41
2023-02-15T08:46:00.316Z,100913.91
2023-02-15T08:48:28.654Z,100917.44
2023-02-15T08:50:56.401Z,100907.56
2023-02-15T08:53:24.596Z,100905.69
2023-02-15T08:55:52.458Z,100903.22
2023-02-15T08:58:20.397Z,100895.75
2023-02-15T09:00:48.330Z,100886.34
2023-02-15T09:03:16.119Z,100894.25
2023-02-15T09:05:44.392Z,100878.19
2023-02-15T09:08:12.183Z,100884.41
2023-02-15T09:10:39.982Z,100876.75
2023-02-15T09:13:07.943Z,100870.34
2023-02-15T09:15:35.744Z,100872.84
2023-02-15T09:18:07.642Z,100870.09
2023-02-15T09:20:35.445Z,100871.81
2023-02-15T09:23:03.307Z,100879.84
2023-02-15T09:25:31.193Z,100879.69
2023-02-15T09:27:59.539Z,100875.00
2023-02-15T09:30:28.225Z,100869.44
2023-02-15T09:32:56.496Z,100870.31
2023-02-15T09:35:24.363Z,100871.31
2023-02-15T09:37:52.123Z,100872.25
2023-02-15T09:40:20.094Z,100872.09
2023-02-15T09:42:48.490Z,100861.47
2023-02-15T09:45:18.396Z,100862.28
2023-02-15T09:47:46.588Z,100863.81
2023-02-15T09:50:14.733Z,100867.94
2023-02-15T09:52:42.659Z,100860.44
2023-02-15T09:55:11.150Z,100865.22
2023-02-15T09:57:38.900Z,100854.84
2023-02-15T10:00:06.685Z,100849.75
2023-02-15T10:02:34.809Z,100847.13
2023-02-15T10:05:02.782Z,100845.97
2023-02-15T10:07:30.776Z,100843.13
2023-02-15T10:09:58.558Z,100843.66
2023-02-15T10:12:26.734Z,100839.63
2023-02-15T10:14:54.409Z,100843.56
2023-02-15T10:17:22.372Z,100838.25
2023-02-15T10:19:51.133Z,100839.97
2023-02-15T10:22:19.608Z,100840.56
2023-02-15T10:24:48.921Z,100833.13
2023-02-15T10:27:16.982Z,100826.31
2023-02-15T10:29:44.808Z,100836.75
2023-02-15T10:32:13.875Z,100823.25
2023-02-15T10:34:41.638Z,100819.34
2023-02-15T10:37:09.382Z,100817.16
2023-02-15T10:39:37.302Z,100820.41
2023-02-15T10:42:05.139Z,100807.25
2023-02-15T10:44:33.575Z,100803.53
2023-02-15T10:47:01.521Z,100813.00
2023-02-15T10:49:29.292Z,100808.50
2023-02-15T10:51:57.197Z,100796.75
2023-02-15T10:54:25.407Z,100794.03
2023-02-15T10:56:53.830Z,100787.34
2023-02-15T10:59:21.681Z,100789.63
2023-02-15T11:01:49.555Z,100798.47
2023-02-15T11:04:17.547Z,100795.06
2023-02-15T11:06:49.529Z,100792.81
2023-02-15T11:09:19.830Z,100780.59
2023-02-15T11:11:47.726Z,100775.81
2023-02-15T11:14:15.592Z,100786.72
2023-02-15T11:16:45.436Z,100786.50
2023-02-15T11:19:13.385Z,100778.47
2023-02-15T11:21:42.704Z,100774.00
2023-02-15T11:24:10.555Z,100778.81
2023-02-15T11:26:38.411Z,100775.44
2023-02-15T11:29:06.369Z,100779.63
2023-02-15T11:31:34.355Z,100771.47
2023-02-15T11:34:03.405Z,100767.19
2023-02-15T11:36:31.341Z,100766.00
2023-02-15T11:38:59.588Z,100763.38
2023-02-15T11:41:27.725Z,100764.94
2023-02-15T11:43:55.732Z,100761.16
2023-02-15T11:46:24.594Z,100762.22
2023-02-15T11:48:52.592Z,100759.75
2023-02-15T11:51:22.120Z,100754.84
2023-02-15T11:53:51.843Z,100751.44
2023-02-15T11:56:19.832Z,100750.16
2023-02-15T11:58:48.608Z,100751.28
2023-02-15T12:01:16.601Z,100745.50
2023-02-15T12:03:45.760Z,100746.97
2023-02-15T12:06:13.816Z,100748.91
2023-02-15T12:08:41.678Z,100741.09
2023-02-15T12:11:13.898Z,100744.53
2023-02-15T12:13:41.772Z,100736.56
2023-02-15T12:16:11.505Z,100737.63
2023-02-15T12:18:40.253Z,100728.94
2023-02-15T12:21:08.246Z,100730.31
2023-02-15T12:23:36.795Z,100727.19
2023-02-15T12:26:04.841Z,100726.91
2023-02-15T12:28:32.779Z,100724.91
2023-02-15T12:31:01.235Z,100728.34
2023-02-15T12:33:29.519Z,100719.31
2023-02-15T12:35:57.961Z,100717.19
2023-02-15T12:38:25.830Z,100721.47
2023-02-15T12:40:54.003Z,100728.50
2023-02-15T12:43:22.253Z,100733.72
2023-02-15T12:45:49.986Z,100732.97
2023-02-15T12:48:18.893Z,100727.88
2023-02-15T12:50:46.946Z,100722.84
2023-02-15T12:53:14.990Z,100725.91
2023-02-15T12:55:45.866Z,100716.06
2023-02-15T12:58:15.218Z,100717.28
2023-02-15T13:00:43.674Z,100718.81
2023-02-15T13:03:11.847Z,100718.66
2023-02-15T13:05:39.857Z,100710.00
2023-02-15T13:08:07.802Z,100704.44
2023-02-15T13:10:35.609Z,100704.78
2023-02-15T13:13:04.742Z,100699.53
2023-02-15T13:15:32.673Z,100694.97
2023-02-15T13:18:00.594Z,100696.00
2023-02-15T13:20:28.584Z,100700.41
2023-02-15T13:22:56.442Z,100690.22
2023-02-15T13:25:25.001Z,100679.03
2023-02-15T13:27:53.246Z,100685.81
2023-02-15T13:30:21.297Z,100682.59
2023-02-15T13:32:49.159Z,100680.34
2023-02-15T13:35:17.022Z,100679.28
2023-02-15T13:37:45.735Z,100679.44
2023-02-15T13:40:13.497Z,100676.47
2023-02-15T13:42:41.516Z,100669.38
2023-02-15T13:45:09.545Z,100668.34
2023-02-15T13:47:37.326Z,100668.69
2023-02-15T13:50:07.894Z,100662.09
2023-02-15T13:52:39.082Z,100658.66
2023-02-15T13:55:07.158Z,100663.59
2023-02-15T13:57:34.996Z,100661.19
2023-02-15T14:00:03.039Z,100668.94
2023-02-15T14:02:31.807Z,100655.25
2023-02-15T14:04:59.663Z,100660.88
2023-02-15T14:07:27.506Z,100658.94
2023-02-15T14:09:55.449Z,100653.13
2023-02-15T14:12:24.108Z,100648.78
2023-02-15T14:14:52.773Z,100651.66
2023-02-15T14:17:20.763Z,100642.88
2023-02-15T14:19:51.134Z,100646.75
2023-02-15T14:22:19.145Z,100647.41
2023-02-15T14:24:47.661Z,100646.03
2023-02-15T14:27:16.243Z,100639.94
2023-02-15T14:29:44.265Z,100649.84
2023-02-15T14:32:12.439Z,100646.50
2023-02-15T14:34:40.447Z,100635.91
2023-02-15T14:37:08.471Z,100637.47
2023-02-15T14:39:54.036Z,100634.13
2023-02-15T14:42:22.358Z,100634.41
2023-02-15T14:44:51.954Z,100640.88
2023-02-15T14:47:19.986Z,100635.19
2023-02-15T14:49:48.215Z,100630.13
2023-02-15T14:52:16.720Z,100626.56
2023-02-15T14:54:46.069Z,100631.47
2023-02-15T14:57:14.064Z,100625.38
2023-02-15T14:59:41.885Z,100618.91
2023-02-15T15:02:09.861Z,100625.53
2023-02-15T15:04:37.839Z,100625.72
2023-02-15T15:07:05.950Z,100627.44
2023-02-15T15:09:33.814Z,100635.53
2023-02-15T15:12:02.527Z,100629.31
2023-02-15T15:14:30.471Z,100623.06
2023-02-15T15:16:58.852Z,100637.03
2023-02-15T15:19:27.088Z,100632.56
2023-02-15T15:21:54.916Z,100624.53
2023-02-15T15:24:22.882Z,100628.19
2023-02-15T15:26:52.051Z,100637.06
2023-02-15T15:29:20.306Z,100641.50
2023-02-15T15:31:48.608Z,100647.53
2023-02-15T15:34:16.909Z,100633.56
2023-02-15T15:36:44.880Z,100630.34
2023-02-15T15:39:13.212Z,100634.84
2023-02-15T15:41:41.619Z,100633.81
2023-02-15T15:44:09.584Z,100625.53
2023-02-15T15:46:37.725Z,100620.53
2023-02-15T15:49:05.687Z,100635.66
2023-02-15T15:51:34.365Z,100634.72
2023-02-15T15:54:02.784Z,100634.47
2023-02-15T15:56:32.736Z,100629.69
2023-02-15T15:59:00.610Z,100633.78
2023-02-15T16:01:28.569Z,100628.84
2023-02-15T16:03:56.563Z,100630.00
2023-02-15T16:06:24.598Z,100634.81
2023-02-15T16:08:52.924Z,100638.34
2023-02-15T16:11:20.920Z,100633.00
2023-02-15T16:13:48.768Z,100644.00
2023-02-15T16:16:17.003Z,100652.28
2023-02-15T16:18:45.400Z,100640.88
2023-02-15T16:21:14.854Z,100644.28
2023-02-15T16:23:44.948Z,100643.44
2023-02-15T16:26:12.928Z,100641.81
2023-02-15T16:28:41.355Z,100637.53
2023-02-15T16:31:13.146Z,100645.25
2023-02-15T16:33:41.834Z,100640.25
2023-02-15T16:36:09.937Z,100645.69
2023-02-15T16:38:37.915Z,100644.81
2023-02-15T16:41:08.163Z,100651.06
2023-02-15T16:43:36.829Z,100651.22
2023-02-15T16:46:05.331Z,100663.28
2023-02-15T16:48:33.175Z,100667.28
2023-02-15T16:51:01.710Z,100667.94
2023-02-15T16:53:29.874Z,100657.16
2023-02-15T16:55:58.249Z,100659.63
2023-02-15T16:58:26.443Z,100659.44
2023-02-15T17:00:54.397Z,100655.50
2023-02-15T17:03:22.362Z,100656.78
2023-02-15T17:05:50.288Z,100661.59
2023-02-15T17:08:19.225Z,100662.69
2023-02-15T17:10:47.613Z,100660.94
2023-02-15T17:13:15.543Z,100672.16
2023-02-15T17:15:43.644Z,100676.41
2023-02-15T17:18:11.799Z,100670.22
2023-02-15T17:20:40.301Z,100677.72
2023-02-15T17:23:10.135Z,100676.19
2023-02-15T17:25:38.168Z,100662.56
2023-02-15T17:28:06.588Z,100666.59
2023-02-15T17:30:34.893Z,100668.22
2023-02-15T17:33:03.502Z,100672.34
2023-02-15T17:35:31.922Z,100661.28
2023-02-15T17:38:00.048Z,100654.44
2023-02-15T17:40:28.184Z,100663.63
2023-02-15T17:42:55.978Z,100661.78
2023-02-15T17:45:24.858Z,100657.88
2023-02-15T17:47:52.986Z,100657.56
2023-02-15T17:50:20.903Z,100651.91
2023-02-15T17:52:49.016Z,100657.88
2023-02-15T17:55:34.988Z,100653.38
2023-02-15T17:58:03.015Z,100653.50
2023-02-15T18:00:48.325Z,100656.19
2023-02-15T18:03:33.661Z,100666.94
2023-02-15T18:06:21.173Z,100660.31
2023-02-15T18:09:06.599Z,100666.28
2023-02-15T18:11:40.849Z,100665.72
2023-02-15T18:14:08.880Z,100665.72
2023-02-15T18:16:37.903Z,100665.81
2023-02-15T18:19:06.472Z,100674.69
2023-02-15T18:21:34.534Z,100665.81
2023-02-15T18:24:02.413Z,100680.97
2023-02-15T18:26:30.631Z,100683.84
2023-02-15T18:28:59.584Z,100678.72
2023-02-15T18:31:27.619Z,100677.22
2023-02-15T18:33:55.484Z,100671.25
2023-02-15T18:36:23.567Z,100683.25
2023-02-15T18:38:51.538Z,100680.34
2023-02-15T18:41:20.682Z,100675.66
2023-02-15T18:43:49.315Z,100688.59
2023-02-15T18:46:17.348Z,100691.81
2023-02-15T18:48:46.768Z,100694.03
2023-02-15T18:51:15.875Z,100689.09
2023-02-15T18:53:44.362Z,100693.97
2023-02-15T18:56:12.246Z,100696.34
2023-02-15T18:58:40.265Z,100696.06
2023-02-15T19:01:08.489Z,100707.41
2023-02-15T19:03:36.716Z,100716.06
2023-02-15T19:06:07.892Z,100707.88
2023-02-15T19:08:35.753Z,100708.53
2023-02-15T19:11:04.310Z,100709.97
2023-02-15T19:13:34.712Z,100714.91
2023-02-15T19:16:05.119Z,100723.31
2023-02-15T19:18:33.781Z,100722.84
2023-02-15T19:21:01.654Z,100722.34
2023-02-15T19:23:29.571Z,100728.72
2023-02-15T19:25:57.596Z,100724.53
2023-02-15T19:28:25.700Z,100719.41
2023-02-15T19:30:53.969Z,100716.84
2023-02-15T19:33:22.001Z,100713.50
2023-02-15T19:35:52.657Z,100722.50
2023-02-15T19:38:20.827Z,100724.31
2023-02-15T19:40:48.877Z,100726.09
2023-02-15T19:43:17.410Z,100719.56
2023-02-15T19:45:45.333Z,100720.91
2023-02-15T19:48:13.212Z,100721.22
2023-02-15T19:50:41.444Z,100707.38
2023-02-15T19:53:09.667Z,100713.16
2023-02-15T19:55:38.497Z,100705.78
2023-02-15T19:58:06.395Z,100708.16
2023-02-15T20:00:34.224Z,100703.03
2023-02-15T20:03:02.362Z,100708.44
2023-02-15T20:05:30.382Z,100713.09
2023-02-15T20:07:58.712Z,100718.69
2023-02-15T20:10:26.603Z,100719.06
2023-02-15T20:12:55.459Z,100712.50
2023-02-15T20:15:24.493Z,100725.47
2023-02-15T20:17:52.713Z,100722.59
2023-02-15T20:20:21.182Z,100730.34
2023-02-15T20:22:49.251Z,100729.34
2023-02-15T20:25:17.161Z,100732.72
2023-02-15T20:27:45.696Z,100729.69
2023-02-15T20:30:13.781Z,100729.34
2023-02-15T20:32:42.221Z,100725.25
2023-02-15T20:35:10.312Z,100732.72
2023-02-15T20:37:38.648Z,100735.78
2023-02-15T20:40:06.847Z,100737.94
2023-02-15T20:42:34.760Z,100747.31
2023-02-15T20:45:03.611Z,100741.75
2023-02-15T20:47:31.530Z,100744.91
2023-02-15T20:49:59.529Z,100739.19
2023-02-15T20:52:27.604Z,100735.22
2023-02-15T20:54:55.557Z,100731.69
2023-02-15T20:57:24.100Z,100731.38
2023-02-15T20:59:52.579Z,100732.75
2023-02-15T21:02:21.237Z,100728.91
2023-02-15T21:04:49.581Z,100718.41
2023-02-15T21:07:18.220Z,100729.00
2023-02-15T21:09:46.551Z,100725.75
2023-02-15T21:12:14.687Z,100728.13
2023-02-15T21:14:42.661Z,100730.50
2023-02-15T21:17:10.946Z,100735.50
2023-02-15T21:19:40.994Z,100729.91
2023-02-15T21:22:10.272Z,100737.47
2023-02-15T21:24:38.131Z,100731.91
2023-02-15T21:27:06.556Z,100735.84
2023-02-15T21:29:35.962Z,100742.38
2023-02-15T21:32:04.310Z,100742.63
2023-02-15T21:34:32.985Z,100742.94
2023-02-15T21:37:00.839Z,100760.78
2023-02-15T21:39:28.855Z,100761.09
2023-02-15T21:42:29.285Z,100756.78
2023-02-15T21:45:15.000Z,100766.91
2023-02-15T21:47:51.970Z,100754.63
2023-02-15T21:50:36.946Z,100766.06
2023-02-15T21:53:04.753Z,100761.84
2023-02-15T21:55:33.665Z,100760.50
2023-02-15T21:58:01.895Z,100756.94
2023-02-15T22:00:29.965Z,100765.41
2023-02-15T22:02:58.410Z,100758.78
2023-02-15T22:05:26.236Z,100754.06
2023-02-15T22:07:54.542Z,100750.34
2023-02-15T22:10:22.904Z,100752.19
2023-02-15T22:12:50.896Z,100756.47
2023-02-15T22:15:19.092Z,100750.03
2023-02-15T22:17:46.923Z,100750.53
2023-02-15T22:20:15.277Z,100745.84
2023-02-15T22:22:43.532Z,100750.03
2023-02-15T22:25:11.885Z,100758.75
2023-02-15T22:27:39.668Z,100754.25
2023-02-15T22:30:08.462Z,100749.78
2023-02-15T22:32:36.615Z,100744.56
2023-02-15T22:35:04.824Z,100741.31
2023-02-15T22:37:33.417Z,100746.06
2023-02-15T22:40:01.146Z,100745.56
2023-02-15T22:42:28.893Z,100743.34
2023-02-15T22:44:57.085Z,100744.50
2023-02-15T22:47:26.263Z,100744.84
2023-02-15T22:49:54.700Z,100740.63
2023-02-15T22:52:22.530Z,100745.31
2023-02-15T22:54:50.194Z,100737.47
2023-02-15T22:57:17.983Z,100737.59
2023-02-15T22:59:46.045Z,100745.78
2023-02-15T23:02:13.734Z,100746.09
2023-02-15T23:04:41.500Z,100750.81
2023-02-15T23:07:09.264Z,100743.00
2023-02-15T23:09:37.884Z,100750.34
2023-02-15T23:12:05.574Z,100755.09
2023-02-15T23:14:33.314Z,100751.91
2023-02-15T23:17:01.010Z,100753.69
2023-02-15T23:19:29.026Z,100763.31
2023-02-15T23:21:57.012Z,100748.94
2023-02-15T23:24:24.738Z,100748.94
2023-02-15T23:26:52.335Z,100749.09
2023-02-15T23:29:19.991Z,100752.84
2023-02-15T23:31:47.742Z,100755.84
2023-02-15T23:34:15.867Z,100744.56
2023-02-15T23:36:44.567Z,100743.03
2023-02-15T23:39:25.967Z,100736.16
2023-02-15T23:41:53.687Z,100740.75
2023-02-15T23:44:21.777Z,100739.22
2023-02-15T23:46:49.486Z,100741.09
2023-02-15T23:49:17.282Z,100735.88
2023-02-15T23:51:45.356Z,100742.09
2023-02-15T23:54:12.941Z,100737.88
2023-02-15T23:56:40.947Z,100736.16
2023-02-15T23:59:08.738Z,100731.66
